Time;durP1;ratioP1;P1;durP2;ratioP2;P2;SDS_P1;SDS_P2;PMS_P1;PMS_P2;Temp;Humidity;BMP_temperature;BMP_pressure;BME280_temperature;BME280_humidity;BME280_pressure;Samples;Min_cycle;Max_cycle;Signal;HPM_P1;HPM_P2
2022/10/22 00:01:08;;;;;;;11.07;8.65;;;13.40;99.90;;;;;;5050527;28;20033;-45
2022/10/22 00:03:34;;;;;;;15.63;8.70;;;13.20;99.90;;;;;;5051213;28;20037;-45
2022/10/22 00:06:00;;;;;;;10.70;7.65;;;13.40;99.90;;;;;;5051459;28;20083;-48
2022/10/22 00:08:26;;;;;;;11.98;8.60;;;13.10;99.90;;;;;;5051385;28;20029;-45
2022/10/22 00:10:52;;;;;;;13.43;9.18;;;13.30;99.90;;;;;;5050210;28;20041;-45
2022/10/22 00:13:17;;;;;;;15.82;8.98;;;13.00;99.90;;;;;;5051517;28;20180;-44
2022/10/22 00:15:43;;;;;;;10.48;8.35;;;12.80;99.90;;;;;;5051478;28;20065;-44
2022/10/22 00:18:09;;;;;;;12.00;9.10;;;13.00;99.90;;;;;;5050344;28;20047;-45
2022/10/22 00:20:35;;;;;;;14.25;9.48;;;12.80;99.90;;;;;;5049932;28;20390;-44
2022/10/22 00:23:00;;;;;;;12.75;8.98;;;13.30;99.90;;;;;;5051222;28;20080;-44
2022/10/22 00:25:26;;;;;;;14.27;9.07;;;13.00;99.90;;;;;;5051366;28;20453;-44
2022/10/22 00:27:52;;;;;;;13.23;9.00;;;12.80;99.90;;;;;;5050959;28;20426;-45
2022/10/22 00:30:18;;;;;;;12.18;9.50;;;13.00;99.90;;;;;;5049063;28;20036;-46
2022/10/22 00:32:44;;;;;;;10.65;9.32;;;12.90;99.90;;;;;;5050797;28;20475;-44
2022/10/22 00:35:10;;;;;;;11.20;7.97;;;13.00;99.90;;;;;;5050334;28;20041;-43
2022/10/22 00:37:35;;;;;;;13.60;9.88;;;12.80;99.90;;;;;;5051227;28;20032;-47
2022/10/22 00:40:02;;;;;;;14.77;9.48;;;13.10;99.90;;;;;;5050460;28;20044;-47
2022/10/22 00:42:30;;;;;;;13.02;9.20;;;13.20;99.90;;;;;;5050743;28;20083;-48
2022/10/22 00:45:05;;;;;;;13.02;8.40;;;13.00;99.90;;;;;;5047432;28;20037;-48
2022/10/22 00:47:36;;;;;;;11.65;9.25;;;13.10;99.90;;;;;;5049983;28;20072;-44
2022/10/22 00:50:09;;;;;;;12.75;9.93;;;12.80;99.90;;;;;;5050870;28;20143;-47
2022/10/22 00:52:35;;;;;;;12.85;9.57;;;13.10;99.90;;;;;;5050412;28;20029;-44
2022/10/22 00:55:01;;;;;;;12.95;9.95;;;13.20;99.90;;;;;;5050544;28;20091;-46
2022/10/22 00:57:28;;;;;;;13.75;9.82;;;13.20;99.90;;;;;;5050628;28;20040;-44
2022/10/22 00:59:55;;;;;;;12.00;10.07;;;13.00;99.90;;;;;;5050518;28;20041;-44
2022/10/22 01:02:21;;;;;;;14.55;10.80;;;12.80;99.90;;;;;;5050299;28;20041;-44
2022/10/22 01:04:47;;;;;;;17.02;10.27;;;13.10;99.90;;;;;;5049568;28;20120;-44
2022/10/22 01:07:16;;;;;;;16.65;10.45;;;13.10;99.90;;;;;;5050690;28;20044;-48
2022/10/22 01:10:01;;;;;;;14.18;10.43;;;13.10;99.90;;;;;;5050610;28;20655;-45
2022/10/22 01:12:39;;;;;;;12.20;9.18;;;12.70;99.90;;;;;;5049938;28;20164;-48
2022/10/22 01:15:23;;;;;;;13.55;9.80;;;12.70;99.90;;;;;;5050042;28;20078;-46
2022/10/22 01:17:57;;;;;;;17.42;10.90;;;12.60;99.90;;;;;;5049686;28;20048;-44
2022/10/22 01:20:37;;;;;;;13.82;11.05;;;12.80;99.90;;;;;;5049151;28;20033;-45
2022/10/22 01:23:26;;;;;;;15.52;10.00;;;13.10;99.90;;;;;;5048836;28;20045;-44
2022/10/22 01:26:43;;;;;;;17.02;10.90;;;12.60;99.90;;;;;;5049743;28;20033;-44
2022/10/22 01:29:15;;;;;;;12.98;9.80;;;12.90;99.90;;;;;;5027040;28;20045;-44
2022/10/22 01:31:49;;;;;;;15.07;11.35;;;12.70;99.90;;;;;;5026431;28;20049;-44
2022/10/22 01:34:17;;;;;;;;;;;13.10;99.90;;;;;;5042261;28;20041;-45
2022/10/22 01:36:45;;;;;;;14.70;10.15;;;13.00;99.90;;;;;;5049739;28;19923;-44
2022/10/22 01:39:13;;;;;;;14.15;11.35;;;12.90;99.90;;;;;;5050466;28;20793;-47
2022/10/22 01:41:44;;;;;;;16.33;11.05;;;12.70;99.90;;;;;;5048749;28;20037;-45
2022/10/22 01:44:33;;;;;;;16.55;9.70;;;12.70;99.90;;;;;;5050257;28;20053;-45
2022/10/22 01:47:07;;;;;;;13.35;10.95;;;12.70;99.90;;;;;;5048538;28;20520;-49
2022/10/22 01:49:57;;;;;;;17.30;11.02;;;13.20;99.90;;;;;;5049208;28;20036;-45
2022/10/22 01:52:38;;;;;;;16.08;11.35;;;13.20;99.90;;;;;;5048591;28;20053;-46
2022/10/22 01:55:31;;;;;;;15.13;9.43;;;13.10;99.90;;;;;;5050225;28;20063;-44
2022/10/22 01:58:36;;;;;;;15.40;10.98;;;13.10;99.90;;;;;;5050315;28;20052;-44
2022/10/22 02:01:23;;;;;;;17.02;10.82;;;12.90;99.90;;;;;;5026544;28;20053;-44
2022/10/22 02:04:09;;;;;;;14.95;11.07;;;12.60;99.90;;;;;;5049421;28;20492;-46
2022/10/22 02:06:38;;;;;;;15.85;10.93;;;12.60;99.90;;;;;;5048763;28;20036;-44
2022/10/22 02:09:04;;;;;;;16.77;11.95;;;13.10;99.90;;;;;;5049843;28;20094;-47
2022/10/22 02:11:30;;;;;;;15.75;10.82;;;12.60;99.90;;;;;;5048995;28;20029;-44
2022/10/22 02:14:00;;;;;;;14.93;11.00;;;12.60;99.90;;;;;;5050059;28;20047;-45
2022/10/22 02:16:52;;;;;;;12.30;9.38;;;12.60;99.90;;;;;;5046839;28;20079;-46
2022/10/22 02:19:27;;;;;;;15.27;10.65;;;12.60;99.90;;;;;;5049303;28;20045;-44
2022/10/22 02:21:54;;;;;;;15.13;11.00;;;12.90;99.90;;;;;;5049990;28;20130;-44
2022/10/22 02:24:21;;;;;;;15.02;9.95;;;12.90;99.90;;;;;;5049935;28;20099;-44
2022/10/22 02:27:11;;;;;;;13.65;9.30;;;12.90;99.90;;;;;;5049472;28;20385;-48
2022/10/22 02:29:51;;;;;;;14.18;11.07;;;12.40;99.90;;;;;;5049338;28;21120;-45
2022/10/22 02:32:21;;;;;;;17.33;11.65;;;12.90;99.90;;;;;;5049315;28;20045;-46
2022/10/22 02:34:48;;;;;;;14.48;11.25;;;12.80;99.90;;;;;;5048834;28;20502;-44
2022/10/22 02:37:15;;;;;;;15.77;10.38;;;12.80;99.90;;;;;;5049323;28;20155;-44
2022/10/22 02:39:41;;;;;;;13.75;10.10;;;12.50;99.90;;;;;;5049313;28;20500;-43
2022/10/22 02:42:08;;;;;;;16.90;10.27;;;12.60;99.90;;;;;;5048980;28;20041;-44
2022/10/22 02:44:34;;;;;;;13.70;10.73;;;12.40;99.90;;;;;;5049145;28;20084;-48
2022/10/22 02:46:59;;;;;;;20.40;10.43;;;12.90;99.90;;;;;;5048667;28;20080;-47
2022/10/22 02:49:25;;;;;;;16.52;12.10;;;12.90;99.90;;;;;;5049123;28;20087;-47
2022/10/22 02:51:51;;;;;;;17.50;12.35;;;12.60;99.90;;;;;;5048644;28;20043;-49
2022/10/22 02:54:16;;;;;;;16.83;10.52;;;13.00;99.90;;;;;;5050129;28;20041;-44
2022/10/22 02:56:42;;;;;;;18.00;12.60;;;12.90;99.90;;;;;;5052191;28;20132;-45
2022/10/22 02:59:08;;;;;;;15.82;12.43;;;12.50;99.90;;;;;;5052939;28;20040;-44
2022/10/22 03:01:33;;;;;;;16.40;11.35;;;12.40;99.90;;;;;;5051070;28;20041;-44
2022/10/22 03:03:59;;;;;;;16.10;10.23;;;12.90;99.90;;;;;;5051076;28;20071;-45
2022/10/22 03:06:25;;;;;;;16.40;11.88;;;12.70;99.90;;;;;;5053052;28;20036;-44
2022/10/22 03:08:50;;;;;;;16.48;12.55;;;12.90;99.90;;;;;;5053281;28;20392;-45
2022/10/22 03:11:16;;;;;;;16.25;13.63;;;12.40;99.90;;;;;;5053357;28;20049;-44
2022/10/22 03:13:41;;;;;;;15.85;11.45;;;12.40;99.90;;;;;;5052972;28;20049;-44
2022/10/22 03:16:07;;;;;;;18.00;13.05;;;12.60;99.90;;;;;;5052657;28;20045;-44
2022/10/22 03:18:33;;;;;;;19.98;13.75;;;12.40;99.90;;;;;;5052465;28;20049;-45
2022/10/22 03:21:05;;;;;;;18.63;12.90;;;12.40;99.90;;;;;;5052416;28;20562;-44
2022/10/22 03:23:31;;;;;;;19.63;13.18;;;12.50;99.90;;;;;;5052151;28;20051;-49
2022/10/22 03:25:58;;;;;;;21.48;11.68;;;12.70;99.90;;;;;;5051039;28;20044;-45
2022/10/22 03:28:25;;;;;;;19.45;13.30;;;12.60;99.90;;;;;;5052522;28;20029;-44
2022/10/22 03:30:51;;;;;;;18.02;13.45;;;12.20;99.90;;;;;;5052440;28;20384;-45
2022/10/22 03:33:17;;;;;;;18.00;13.57;;;12.30;99.90;;;;;;5052363;28;20123;-44
2022/10/22 03:35:45;;;;;;;17.88;13.80;;;12.70;99.90;;;;;;5051091;28;20091;-45
2022/10/22 03:38:12;;;;;;;17.35;11.93;;;12.20;99.90;;;;;;5052966;28;20025;-45
2022/10/22 03:40:38;;;;;;;22.92;13.27;;;12.10;99.90;;;;;;5052112;28;20415;-47
2022/10/22 03:43:04;;;;;;;19.40;13.73;;;12.60;99.90;;;;;;5052343;28;20040;-47
2022/10/22 03:45:29;;;;;;;17.73;12.00;;;12.30;99.90;;;;;;5049461;28;20392;-46
2022/10/22 03:47:55;;;;;;;24.20;14.63;;;12.40;99.90;;;;;;5051662;28;20053;-45
2022/10/22 03:50:20;;;;;;;18.38;11.68;;;12.70;99.90;;;;;;5052374;28;20040;-44
2022/10/22 03:52:46;;;;;;;21.13;12.80;;;12.60;99.90;;;;;;5051733;28;20496;-44
2022/10/22 03:55:12;;;;;;;18.90;12.48;;;12.40;99.90;;;;;;5051798;28;20036;-43
2022/10/22 03:57:37;;;;;;;19.00;12.98;;;12.30;99.90;;;;;;5050597;28;21200;-43
2022/10/22 04:00:05;;;;;;;18.38;14.43;;;12.20;99.90;;;;;;5049324;28;20033;-45
2022/10/22 04:02:30;;;;;;;20.45;15.05;;;12.50;99.90;;;;;;5051727;28;20389;-45
2022/10/22 04:04:56;;;;;;;19.55;13.38;;;12.60;99.90;;;;;;5050528;28;20037;-44
2022/10/22 04:07:22;;;;;;;19.85;14.80;;;12.40;99.90;;;;;;5051592;28;20037;-44
2022/10/22 04:09:47;;;;;;;26.45;13.13;;;12.30;99.90;;;;;;5051358;28;20048;-44
2022/10/22 04:12:13;;;;;;;23.15;14.38;;;12.10;99.90;;;;;;5052127;28;20111;-44
2022/10/22 04:14:39;;;;;;;21.65;13.98;;;12.20;99.90;;;;;;5051842;28;20036;-44
2022/10/22 04:17:04;;;;;;;20.45;14.32;;;12.10;99.90;;;;;;5051206;28;20603;-44
2022/10/22 04:19:30;;;;;;;21.67;15.45;;;12.30;99.90;;;;;;5051080;28;20037;-47
2022/10/22 04:21:59;;;;;;;20.65;15.98;;;12.30;99.90;;;;;;5051558;28;20365;-45
2022/10/22 04:24:25;;;;;;;22.15;13.75;;;12.20;99.90;;;;;;5050900;28;20044;-43
2022/10/22 04:26:53;;;;;;;21.33;16.38;;;12.80;99.90;;;;;;5048427;28;20041;-48
2022/10/22 04:29:19;;;;;;;22.15;15.95;;;12.50;99.90;;;;;;5050023;28;20045;-44
2022/10/22 04:31:44;;;;;;;19.55;15.70;;;12.60;99.90;;;;;;5049322;28;20095;-48
2022/10/22 04:34:10;;;;;;;17.48;12.63;;;12.30;99.90;;;;;;5051159;28;20098;-45
2022/10/22 04:36:36;;;;;;;19.10;13.73;;;12.40;99.90;;;;;;5050300;28;20124;-45
2022/10/22 04:39:03;;;;;;;18.90;13.45;;;12.80;99.90;;;;;;5050760;28;20063;-46
2022/10/22 04:41:31;;;;;;;18.95;15.25;;;12.30;99.90;;;;;;5050905;28;20104;-45
2022/10/22 04:43:58;;;;;;;22.98;13.35;;;12.50;99.90;;;;;;5032064;28;20507;-48
2022/10/22 04:46:25;;;;;;;20.02;15.07;;;12.40;99.90;;;;;;5050706;28;20080;-47
2022/10/22 04:48:52;;;;;;;20.35;14.85;;;12.40;99.90;;;;;;5048747;28;20045;-47
2022/10/22 04:51:20;;;;;;;20.52;13.80;;;12.30;99.90;;;;;;5050758;28;20399;-46
2022/10/22 04:53:46;;;;;;;20.77;15.43;;;12.40;99.90;;;;;;5050795;28;20041;-45
2022/10/22 04:56:19;;;;;;;19.23;14.77;;;12.40;99.90;;;;;;5050767;28;20472;-44
2022/10/22 04:58:49;;;;;;;22.40;13.35;;;12.80;99.90;;;;;;5049682;28;20157;-45
2022/10/22 05:01:20;;;;;;;20.20;14.88;;;12.80;99.90;;;;;;5051077;28;20047;-45
2022/10/22 05:03:48;;;;;;;18.95;13.20;;;12.50;99.90;;;;;;5050583;28;20034;-44
2022/10/22 05:06:14;;;;;;;19.88;14.95;;;12.30;99.90;;;;;;5050230;28;20028;-46
2022/10/22 05:08:40;;;;;;;18.25;14.40;;;12.40;99.90;;;;;;5049140;28;20468;-44
2022/10/22 05:11:32;;;;;;;19.45;12.95;;;12.30;99.90;;;;;;5049603;28;20540;-44
2022/10/22 05:13:59;;;;;;;24.55;12.70;;;12.80;99.90;;;;;;5050847;28;20041;-44
2022/10/22 05:16:26;;;;;;;20.83;14.68;;;12.90;99.90;;;;;;5048685;28;20036;-47
2022/10/22 05:18:52;;;;;;;20.25;13.93;;;12.30;99.90;;;;;;5049570;28;20075;-45
2022/10/22 05:21:19;;;;;;;21.75;14.50;;;12.30;99.90;;;;;;5050189;28;20065;-45
2022/10/22 05:23:47;;;;;;;19.73;11.82;;;12.30;99.90;;;;;;5050103;28;20052;-43
2022/10/22 05:26:16;;;;;;;24.20;15.10;;;12.70;99.90;;;;;;5050171;28;20041;-44
2022/10/22 05:28:42;;;;;;;20.27;14.98;;;12.70;99.90;;;;;;5050238;28;20037;-46
2022/10/22 05:31:10;;;;;;;22.08;14.95;;;12.80;99.90;;;;;;5050222;28;20040;-43
2022/10/22 05:33:35;;;;;;;20.45;14.10;;;12.80;99.90;;;;;;5049989;28;20075;-46
2022/10/22 05:36:03;;;;;;;22.92;14.52;;;12.30;99.90;;;;;;5049667;28;20076;-47
2022/10/22 05:38:29;;;;;;;15.55;12.13;;;12.90;99.90;;;;;;5049701;28;20040;-46
2022/10/22 05:41:11;;;;;;;22.17;14.63;;;12.30;99.90;;;;;;5049851;28;20041;-44
2022/10/22 05:43:38;;;;;;;23.85;14.18;;;12.60;99.90;;;;;;5049523;28;20463;-44
2022/10/22 05:46:06;;;;;;;20.60;12.63;;;12.70;99.90;;;;;;5048161;28;20129;-45
2022/10/22 05:48:32;;;;;;;21.05;12.63;;;12.70;99.90;;;;;;5049579;28;20260;-43
2022/10/22 05:51:04;;;;;;;21.33;14.27;;;12.90;99.90;;;;;;5049874;28;20128;-44
2022/10/22 05:53:35;;;;;;;18.83;13.77;;;12.90;99.90;;;;;;5049578;28;20587;-47
2022/10/22 05:56:02;;;;;;;21.05;12.27;;;12.90;99.90;;;;;;5050074;28;20041;-45
2022/10/22 05:58:28;;;;;;;19.90;12.32;;;12.40;99.90;;;;;;5049755;28;20128;-46
2022/10/22 06:00:59;;;;;;;20.52;12.98;;;12.80;99.90;;;;;;5048496;28;20115;-47
2022/10/22 06:03:25;;;;;;;21.52;12.05;;;12.70;99.90;;;;;;5046558;28;20093;-44
2022/10/22 06:05:50;;;;;;;24.60;12.88;;;12.30;99.90;;;;;;5046549;28;20028;-44
2022/10/22 06:08:16;;;;;;;19.40;12.68;;;12.50;99.90;;;;;;5048437;28;20043;-48
2022/10/22 06:10:43;;;;;;;20.70;13.25;;;12.90;99.90;;;;;;5049304;28;20036;-46
2022/10/22 06:13:09;;;;;;;17.00;11.77;;;12.50;99.90;;;;;;5048693;28;20045;-46
2022/10/22 06:15:34;;;;;;;19.30;12.13;;;12.90;99.90;;;;;;5047440;28;20116;-46
2022/10/22 06:18:00;;;;;;;21.42;12.32;;;12.40;99.90;;;;;;5048599;28;20135;-46
2022/10/22 06:20:26;;;;;;;18.02;13.40;;;12.90;99.90;;;;;;5045199;28;20025;-46
2022/10/22 06:22:51;;;;;;;18.20;12.40;;;12.60;99.90;;;;;;5047616;28;20125;-44
2022/10/22 06:25:17;;;;;;;19.65;11.95;;;12.70;99.90;;;;;;5046548;28;20544;-45
2022/10/22 06:27:47;;;;;;;21.67;13.05;;;12.40;99.90;;;;;;5048324;28;20045;-45
2022/10/22 06:30:13;;;;;;;18.73;13.05;;;12.70;99.90;;;;;;5044525;28;20074;-44
2022/10/22 06:32:39;;;;;;;18.98;10.50;;;12.60;99.90;;;;;;5040851;28;20072;-45
2022/10/22 06:35:06;;;;;;;18.85;12.75;;;12.90;99.90;;;;;;5042347;28;20041;-45
2022/10/22 06:37:31;;;;;;;19.65;12.23;;;12.40;99.90;;;;;;5041642;28;20156;-44
2022/10/22 06:39:57;;;;;;;19.30;12.18;;;12.40;99.90;;;;;;5042103;28;20124;-45
2022/10/22 06:42:23;;;;;;;21.17;11.98;;;12.60;99.90;;;;;;5042235;28;20483;-43
2022/10/22 06:44:48;;;;;;;19.17;12.20;;;12.70;99.90;;;;;;5041690;28;20052;-45
2022/10/22 06:47:14;;;;;;;20.98;10.95;;;12.90;99.90;;;;;;5042087;28;20049;-46
2022/10/22 06:49:40;;;;;;;15.50;10.60;;;12.70;99.90;;;;;;5041610;28;20041;-46
2022/10/22 06:52:05;;;;;;;15.93;11.70;;;12.90;99.90;;;;;;5042260;28;20044;-44
2022/10/22 06:54:31;;;;;;;21.95;10.98;;;12.90;99.90;;;;;;5040905;28;20037;-46
2022/10/22 06:56:56;;;;;;;16.70;11.57;;;12.80;99.90;;;;;;5042264;28;20045;-45
2022/10/22 06:59:22;;;;;;;19.00;12.38;;;12.70;99.90;;;;;;5042906;28;20041;-48
2022/10/22 07:01:48;;;;;;;18.10;11.60;;;12.90;99.90;;;;;;5042224;28;20037;-43
2022/10/22 07:04:13;;;;;;;17.90;11.77;;;12.70;99.90;;;;;;5042584;28;20045;-46
2022/10/22 07:06:39;;;;;;;15.52;11.05;;;12.90;99.90;;;;;;5042043;28;20067;-44
2022/10/22 07:09:05;;;;;;;17.05;10.05;;;12.90;99.90;;;;;;5041798;28;20029;-45
2022/10/22 07:11:38;;;;;;;17.63;10.38;;;12.40;99.90;;;;;;5040930;28;20062;-47
2022/10/22 07:14:04;;;;;;;18.10;10.10;;;12.50;99.90;;;;;;5041833;28;20453;-44
2022/10/22 07:16:29;;;;;;;15.30;11.20;;;12.40;99.90;;;;;;5043612;28;20319;-45
2022/10/22 07:18:55;;;;;;;16.80;10.70;;;12.90;99.90;;;;;;5040614;28;20052;-43
2022/10/22 07:21:21;;;;;;;18.35;11.80;;;12.50;99.90;;;;;;5040248;28;20044;-44
2022/10/22 07:23:47;;;;;;;16.23;9.57;;;12.60;99.90;;;;;;5042184;28;20045;-44
2022/10/22 07:26:15;;;;;;;19.02;11.25;;;13.00;99.90;;;;;;5042919;28;20282;-44
2022/10/22 07:28:41;;;;;;;16.30;10.98;;;13.60;99.90;;;;;;5041693;28;20534;-46
2022/10/22 07:31:09;;;;;;;18.85;11.93;;;13.00;99.90;;;;;;5041744;28;20120;-47
2022/10/22 07:33:36;;;;;;;21.48;11.07;;;13.00;99.90;;;;;;5041759;28;20033;-45
2022/10/22 07:36:05;;;;;;;19.88;9.65;;;12.60;99.90;;;;;;5041479;28;20037;-43
2022/10/22 07:38:31;;;;;;;15.27;10.27;;;12.50;99.90;;;;;;5041552;28;20473;-45
2022/10/22 07:40:57;;;;;;;16.73;10.90;;;13.00;99.90;;;;;;5039211;28;20083;-46
2022/10/22 07:43:23;;;;;;;18.95;10.32;;;12.50;99.90;;;;;;5034576;28;20071;-45
2022/10/22 07:45:49;;;;;;;16.83;9.63;;;13.00;99.90;;;;;;5033477;28;20123;-45
2022/10/22 07:48:15;;;;;;;19.30;10.98;;;13.40;99.90;;;;;;5052002;28;20461;-43
2022/10/22 07:50:41;;;;;;;16.25;10.70;;;13.20;99.90;;;;;;5034480;28;20041;-47
2022/10/22 07:53:06;;;;;;;20.50;10.45;;;12.80;99.90;;;;;;5035391;28;20416;-45
2022/10/22 07:55:33;;;;;;;16.08;9.85;;;13.40;99.90;;;;;;5033150;28;20536;-46
2022/10/22 07:57:58;;;;;;;16.50;9.07;;;13.40;99.90;;;;;;5034058;28;20048;-44
2022/10/22 08:00:24;;;;;;;17.85;10.00;;;13.20;99.90;;;;;;5033762;28;20041;-45
2022/10/22 08:02:50;;;;;;;14.38;9.20;;;13.30;99.90;;;;;;5035469;28;20489;-44
2022/10/22 08:05:16;;;;;;;19.45;8.45;;;13.10;99.90;;;;;;5030334;28;20037;-44
2022/10/22 08:07:41;;;;;;;19.73;9.75;;;13.50;99.90;;;;;;5032683;28;20044;-45
2022/10/22 08:10:09;;;;;;;18.08;9.02;;;13.20;99.90;;;;;;5035795;28;20048;-46
2022/10/22 08:12:35;;;;;;;18.17;9.32;;;13.50;99.90;;;;;;5033284;28;20034;-45
2022/10/22 08:15:01;;;;;;;15.73;8.65;;;13.20;99.90;;;;;;5032157;28;20076;-46
2022/10/22 08:17:27;;;;;;;16.20;9.30;;;13.70;99.90;;;;;;5033070;28;20500;-45
2022/10/22 08:19:53;;;;;;;15.00;8.70;;;13.30;99.90;;;;;;5030521;28;20045;-47
2022/10/22 08:22:19;;;;;;;16.73;9.07;;;13.70;99.90;;;;;;5037090;28;20056;-45
2022/10/22 08:24:45;;;;;;;18.10;8.95;;;13.60;99.90;;;;;;5037562;28;20037;-46
2022/10/22 08:27:11;;;;;;;12.27;7.80;;;14.10;99.90;;;;;;5036156;28;20439;-44
2022/10/22 08:29:37;;;;;;;14.02;7.78;;;14.20;99.90;;;;;;5036685;28;20037;-47
2022/10/22 08:32:03;;;;;;;15.27;7.90;;;14.00;99.90;;;;;;5049566;28;20052;-45
2022/10/22 08:34:29;;;;;;;17.38;8.52;;;14.30;99.90;;;;;;5032611;28;20040;-48
2022/10/22 08:36:54;;;;;;;15.88;7.68;;;13.90;99.90;;;;;;5035282;28;20041;-44
2022/10/22 08:39:20;;;;;;;17.58;7.30;;;14.10;99.90;;;;;;5033265;28;20041;-45
2022/10/22 08:42:04;;;;;;;18.27;7.10;;;14.10;99.90;;;;;;5033180;28;20041;-46
2022/10/22 08:45:01;;;;;;;15.27;6.72;;;14.00;99.90;;;;;;5032602;28;20037;-44
2022/10/22 08:47:35;;;;;;;14.30;6.93;;;14.50;99.90;;;;;;5028597;28;20053;-45
2022/10/22 08:50:01;;;;;;;17.00;7.13;;;14.60;99.90;;;;;;5032150;28;20089;-46
2022/10/22 08:52:27;;;;;;;15.15;6.55;;;14.50;99.90;;;;;;5034175;28;20072;-44
2022/10/22 08:54:58;;;;;;;14.30;6.30;;;14.70;99.90;;;;;;5035733;28;20449;-44
2022/10/22 08:57:46;;;;;;;14.20;5.95;;;15.00;99.90;;;;;;5036739;28;20041;-48
2022/10/22 09:00:19;;;;;;;18.45;6.35;;;15.00;99.90;;;;;;5032438;28;20033;-43
2022/10/22 09:03:22;;;;;;;15.02;5.97;;;14.90;99.90;;;;;;5035499;28;20033;-45
2022/10/22 09:06:14;;;;;;;17.30;5.20;;;14.80;99.90;;;;;;5031217;28;20045;-45
2022/10/22 09:08:42;;;;;;;13.98;4.78;;;14.70;99.90;;;;;;5035158;28;20394;-47
2022/10/22 09:11:27;;;;;;;12.23;4.20;;;15.20;99.90;;;;;;5032435;28;20614;-46
2022/10/22 09:13:54;;;;;;;15.82;4.60;;;15.10;99.90;;;;;;5031685;28;20026;-46
2022/10/22 09:16:30;;;;;;;12.90;4.97;;;15.10;99.90;;;;;;5031450;28;20041;-46
2022/10/22 09:19:46;;;;;;;16.70;5.22;;;14.80;99.90;;;;;;5035420;28;23461;-47
2022/10/22 09:22:41;;;;;;;14.88;4.60;;;14.80;99.90;;;;;;5028937;28;20044;-44
2022/10/22 09:25:28;;;;;;;9.52;4.00;;;15.20;99.90;;;;;;5029340;28;20405;-46
2022/10/22 09:27:57;;;;;;;10.70;3.85;;;15.00;99.90;;;;;;5032949;28;20045;-44
2022/10/22 09:30:28;;;;;;;13.98;4.20;;;14.80;99.90;;;;;;5033550;28;20037;-44
2022/10/22 09:33:16;;;;;;;12.82;4.70;;;15.20;99.90;;;;;;5033824;28;20021;-47
2022/10/22 09:36:04;;;;;;;14.95;4.32;;;15.10;99.90;;;;;;5033301;28;20037;-47
2022/10/22 09:38:37;;;;;;;12.35;4.70;;;15.20;99.90;;;;;;5030552;28;20040;-46
2022/10/22 09:41:03;;;;;;;15.93;4.63;;;15.30;99.90;;;;;;5031474;28;20041;-46
2022/10/22 09:43:30;;;;;;;17.45;5.20;;;15.10;99.90;;;;;;5033168;28;20055;-46
2022/10/22 09:46:04;;;;;;;12.93;5.43;;;15.10;99.90;;;;;;5033278;28;20037;-44
2022/10/22 09:48:40;;;;;;;14.60;5.13;;;15.10;99.90;;;;;;5031175;28;20048;-44
2022/10/22 09:51:17;;;;;;;11.20;5.47;;;15.30;99.90;;;;;;5030406;28;20465;-44
2022/10/22 09:53:46;;;;;;;15.68;5.65;;;15.50;99.90;;;;;;5032961;28;20047;-44
2022/10/22 09:56:22;;;;;;;11.45;5.45;;;15.60;99.90;;;;;;5031071;28;20132;-46
2022/10/22 09:58:50;;;;;;;14.95;5.75;;;15.40;99.90;;;;;;5032794;28;20036;-43
2022/10/22 10:01:35;;;;;;;13.85;6.18;;;15.60;99.90;;;;;;5037876;28;20037;-44
2022/10/22 10:04:15;;;;;;;11.35;5.35;;;15.50;99.90;;;;;;5032339;28;20048;-45
2022/10/22 10:06:43;;;;;;;11.45;6.32;;;15.70;99.90;;;;;;5031451;28;20053;-45
2022/10/22 10:09:18;;;;;;;12.80;6.00;;;15.60;99.90;;;;;;5032760;28;20063;-45
2022/10/22 10:12:04;;;;;;;15.32;7.18;;;15.70;99.90;;;;;;5031969;28;20476;-44
2022/10/22 10:14:35;;;;;;;16.23;6.95;;;15.60;99.90;;;;;;5031522;28;20113;-44
2022/10/22 10:17:37;;;;;;;13.32;6.80;;;15.70;99.90;;;;;;5030991;28;20133;-45
2022/10/22 10:20:27;;;;;;;14.02;6.88;;;15.60;99.90;;;;;;5032334;28;20121;-45
2022/10/22 10:23:07;;;;;;;12.30;6.43;;;15.30;99.90;;;;;;5024584;28;20128;-44
2022/10/22 10:25:51;;;;;;;14.60;6.50;;;15.50;99.90;;;;;;5015863;28;20045;-46
2022/10/22 10:28:22;;;;;;;16.15;7.03;;;15.40;99.90;;;;;;5031539;28;20456;-45
2022/10/22 10:30:58;;;;;;;17.70;7.13;;;15.60;99.90;;;;;;5032758;28;20102;-44
2022/10/22 10:33:40;;;;;;;14.60;6.85;;;15.60;99.90;;;;;;5028687;28;20037;-46
2022/10/22 10:36:38;;;;;;;13.30;6.95;;;15.50;99.90;;;;;;5034758;28;20456;-45
2022/10/22 10:39:17;;;;;;;10.95;6.55;;;15.60;99.90;;;;;;4997017;28;20929;-45
2022/10/22 10:41:43;;;;;;;15.52;7.07;;;15.50;99.90;;;;;;5032163;28;20045;-50
2022/10/22 10:44:44;;;;;;;20.45;7.20;;;15.50;99.90;;;;;;5032394;28;20056;-45
2022/10/22 10:48:05;;;;;;;15.90;7.13;;;15.70;99.90;;;;;;5016622;28;20048;-43
2022/10/22 10:50:56;;;;;;;13.80;6.70;;;15.80;99.90;;;;;;5016430;28;20045;-45
2022/10/22 10:53:33;;;;;;;13.18;6.18;;;15.90;99.90;;;;;;5032845;28;20069;-47
2022/10/22 10:56:14;;;;;;;13.50;6.20;;;16.00;99.90;;;;;;5029970;28;20048;-46
2022/10/22 10:59:09;;;;;;;16.63;6.38;;;15.90;99.90;;;;;;5032733;28;20033;-45
2022/10/22 11:01:41;;;;;;;;;;;16.20;99.90;;;;;;5043783;28;20049;-46
2022/10/22 11:04:40;;;;;;;12.52;6.18;;;15.80;99.90;;;;;;5046086;28;20367;-44
2022/10/22 11:07:12;;;;;;;14.60;5.93;;;16.10;99.90;;;;;;5047451;28;20041;-45
2022/10/22 11:09:53;;;;;;;15.20;5.70;;;16.00;99.90;;;;;;5045625;28;20082;-44
2022/10/22 11:12:30;;;;;;;14.73;5.90;;;16.20;99.90;;;;;;5048015;28;20037;-46
2022/10/22 11:15:28;;;;;;;13.63;5.70;;;16.10;99.90;;;;;;5047103;28;20507;-45
2022/10/22 11:18:01;;;;;;;16.75;6.13;;;16.50;99.90;;;;;;5048553;28;20045;-44
2022/10/22 11:20:47;;;;;;;12.15;4.60;;;17.30;99.90;;;;;;5048320;28;20132;-45
2022/10/22 11:23:20;;;;;;;14.43;4.65;;;17.80;99.90;;;;;;5048880;28;20041;-47
2022/10/22 11:25:48;;;;;;;8.93;3.95;;;18.20;99.90;;;;;;5047522;28;20044;-48
2022/10/22 11:28:26;;;;;;;13.15;4.03;;;18.20;99.90;;;;;;5041790;28;20057;-46
2022/10/22 11:31:07;;;;;;;13.40;3.60;;;18.20;99.90;;;;;;5049520;28;20029;-45
2022/10/22 11:33:53;;;;;;;15.05;3.80;;;18.00;99.90;;;;;;5051569;28;20041;-44
2022/10/22 11:36:22;;;;;;;11.13;3.35;;;17.80;99.90;;;;;;5042720;28;20071;-46
2022/10/22 11:38:48;;;;;;;8.65;3.45;;;17.70;99.90;;;;;;5052330;28;20072;-44
2022/10/22 11:41:22;;;;;;;12.10;3.78;;;17.70;99.90;;;;;;5050932;28;20037;-46
2022/10/22 11:43:53;;;;;;;7.97;3.15;;;17.50;99.90;;;;;;5051040;28;20044;-44
2022/10/22 11:46:19;;;;;;;11.68;3.63;;;17.30;99.90;;;;;;5051575;28;20515;-44
2022/10/22 11:49:19;;;;;;;12.63;3.70;;;17.00;99.90;;;;;;5050322;28;20052;-44
2022/10/22 11:51:46;;;;;;;10.00;3.40;;;16.90;99.90;;;;;;5019143;28;20052;-44
2022/10/22 11:54:30;;;;;;;10.57;3.67;;;16.70;99.90;;;;;;5050652;28;20041;-46
2022/10/22 11:57:14;;;;;;;11.43;3.53;;;16.70;99.90;;;;;;5050488;28;20055;-45
2022/10/22 11:59:49;;;;;;;10.20;3.65;;;16.60;99.90;;;;;;5052042;28;20104;-48
2022/10/22 12:02:30;;;;;;;13.95;3.67;;;16.80;99.90;;;;;;5051196;28;20069;-44
2022/10/22 12:05:31;;;;;;;10.00;3.45;;;16.70;99.90;;;;;;5051903;28;20033;-45
2022/10/22 12:08:21;;;;;;;8.85;3.30;;;16.60;99.90;;;;;;5051477;28;20079;-44
2022/10/22 12:11:12;;;;;;;10.77;3.90;;;16.80;99.90;;;;;;5051673;28;20029;-44
2022/10/22 12:14:15;;;;;;;8.05;3.35;;;16.70;99.90;;;;;;5051538;28;20029;-45
2022/10/22 12:16:45;;;;;;;10.48;3.53;;;16.70;99.90;;;;;;5051576;28;20502;-47
2022/10/22 12:19:29;;;;;;;10.63;3.22;;;16.70;99.90;;;;;;5051129;28;20069;-46
2022/10/22 12:22:05;;;;;;;9.50;2.90;;;16.50;99.90;;;;;;5051300;28;20041;-46
2022/10/22 12:24:39;;;;;;;9.05;3.47;;;16.60;99.90;;;;;;5050673;28;20037;-47
2022/10/22 12:27:20;;;;;;;8.50;2.78;;;16.60;99.90;;;;;;5050658;28;20041;-44
2022/10/22 12:29:46;;;;;;;8.70;2.88;;;16.70;99.90;;;;;;5048254;28;20428;-45
2022/10/22 12:32:15;;;;;;;11.23;2.65;;;16.60;99.90;;;;;;5050209;28;22150;-46
2022/10/22 12:34:49;;;;;;;7.93;2.83;;;16.80;99.90;;;;;;5050212;28;20550;-45
2022/10/22 12:37:16;;;;;;;8.38;2.42;;;17.20;99.90;;;;;;5050964;28;20041;-48
2022/10/22 12:39:43;;;;;;;9.52;2.78;;;17.30;99.90;;;;;;5050846;28;20044;-47
2022/10/22 12:42:13;;;;;;;12.65;2.75;;;17.70;99.90;;;;;;5049898;28;20119;-46
2022/10/22 12:44:39;;;;;;;8.25;2.38;;;17.90;99.90;;;;;;5050928;28;20029;-47
2022/10/22 12:47:07;;;;;;;9.20;2.45;;;18.00;99.90;;;;;;5049139;28;20053;-45
2022/10/22 12:49:39;;;;;;;11.82;2.83;;;17.80;99.90;;;;;;5050906;28;20037;-49
2022/10/22 12:52:11;;;;;;;8.90;2.40;;;17.70;99.90;;;;;;5050506;28;20463;-45
2022/10/22 12:54:38;;;;;;;9.85;3.00;;;17.60;99.90;;;;;;5051149;28;20490;-47
2022/10/22 12:57:03;;;;;;;7.15;2.45;;;17.50;99.90;;;;;;5050806;28;20072;-44